createdAt,value
2023-03-26T00:02:09.244Z,7.01
2023-03-26T00:04:38.644Z,6.97
2023-03-26T00:07:09.929Z,6.94
2023-03-26T00:09:41.124Z,6.88
2023-03-26T00:12:10.094Z,6.83
2023-03-26T00:14:40.483Z,6.79
2023-03-26T00:17:09.470Z,6.74
2023-03-26T00:19:39.795Z,6.72
2023-03-26T00:22:10.649Z,6.72
2023-03-26T00:24:40.241Z,6.66
2023-03-26T00:27:09.132Z,6.63
2023-03-26T00:29:39.783Z,6.63
2023-03-26T00:32:09.058Z,6.57
2023-03-26T00:34:41.077Z,6.57
2023-03-26T00:37:12.088Z,6.55
2023-03-26T00:39:42.410Z,6.59
2023-03-26T00:42:14.431Z,6.57
2023-03-26T00:44:43.428Z,6.63
2023-03-26T00:47:13.039Z,6.61
2023-03-26T00:49:46.434Z,6.59
2023-03-26T00:52:18.418Z,6.61
2023-03-26T00:54:48.478Z,6.59
2023-03-26T00:57:32.778Z,6.60
2023-03-26T01:00:15.301Z,6.65
2023-03-26T01:02:47.911Z,6.66
2023-03-26T01:05:48.357Z,6.70
2023-03-26T01:08:27.131Z,6.72
2023-03-26T01:11:06.444Z,6.72
2023-03-26T01:13:38.232Z,6.74
2023-03-26T01:16:25.319Z,6.79
2023-03-26T01:18:58.247Z,6.76
2023-03-26T01:21:31.473Z,6.80
2023-03-26T01:24:02.503Z,6.82
2023-03-26T01:27:09.759Z,6.82
2023-03-26T01:29:47.630Z,6.84
2023-03-26T01:32:32.407Z,6.84
2023-03-26T01:35:20.980Z,6.84
2023-03-26T01:38:02.044Z,6.87
2023-03-26T01:40:42.197Z,6.87
2023-03-26T01:43:17.879Z,6.86
2023-03-26T01:45:49.971Z,6.86
2023-03-26T01:48:19.320Z,6.87
2023-03-26T01:50:53.163Z,6.88
2023-03-26T01:53:22.034Z,6.87
2023-03-26T01:56:03.434Z,6.88
2023-03-26T01:58:41.435Z,6.94
2023-03-26T02:01:23.870Z,6.93
2023-03-26T02:03:58.835Z,6.94
2023-03-26T02:06:33.885Z,6.97
2023-03-26T02:09:06.568Z,6.94
2023-03-26T02:11:38.570Z,6.95
2023-03-26T02:14:08.718Z,6.94
2023-03-26T02:16:38.857Z,6.94
2023-03-26T02:19:14.913Z,6.91
2023-03-26T02:21:46.468Z,6.93
2023-03-26T02:24:15.556Z,6.90
2023-03-26T02:26:45.351Z,6.90
2023-03-26T02:29:19.788Z,6.87
2023-03-26T02:31:50.021Z,6.83
2023-03-26T02:34:19.147Z,6.76
2023-03-26T02:36:52.452Z,6.73
2023-03-26T02:39:21.973Z,6.70
2023-03-26T02:41:56.879Z,6.72
2023-03-26T02:44:27.261Z,6.72
2023-03-26T02:47:16.335Z,6.73
2023-03-26T02:49:54.821Z,6.76
2023-03-26T02:52:36.879Z,6.79
2023-03-26T02:55:07.604Z,6.80
2023-03-26T02:57:39.248Z,6.80
2023-03-26T03:00:22.297Z,6.82
2023-03-26T03:03:11.143Z,6.83
2023-03-26T03:06:12.692Z,6.84
2023-03-26T03:08:47.520Z,6.86
2023-03-26T03:11:21.839Z,6.88
2023-03-26T03:13:54.101Z,6.94
2023-03-26T03:16:26.444Z,6.95
2023-03-26T03:18:57.432Z,7.00
2023-03-26T03:21:30.215Z,7.04
2023-03-26T03:23:59.918Z,7.07
2023-03-26T03:26:30.963Z,7.10
2023-03-26T03:29:05.756Z,7.11
2023-03-26T03:31:37.210Z,7.11
2023-03-26T03:34:07.601Z,7.14
2023-03-26T03:36:41.722Z,7.12
2023-03-26T03:39:20.243Z,7.11
2023-03-26T03:41:49.642Z,7.08
2023-03-26T03:44:18.863Z,7.07
2023-03-26T03:46:53.989Z,7.05
2023-03-26T03:49:23.539Z,7.05
2023-03-26T03:51:53.995Z,7.07
2023-03-26T03:54:29.938Z,7.08
2023-03-26T03:57:15.405Z,7.05
2023-03-26T04:00:01.818Z,7.04
2023-03-26T04:02:45.935Z,7.02
2023-03-26T04:05:15.567Z,7.01
2023-03-26T04:07:49.724Z,7.00
2023-03-26T04:10:43.217Z,6.97
2023-03-26T04:13:15.206Z,6.95
2023-03-26T04:16:12.056Z,6.95
2023-03-26T04:18:44.638Z,6.95
2023-03-26T04:21:17.036Z,6.91
2023-03-26T04:23:47.038Z,6.91
2023-03-26T04:26:43.455Z,6.94
2023-03-26T04:29:18.637Z,6.94
2023-03-26T04:31:50.043Z,6.93
2023-03-26T04:34:23.663Z,6.97
2023-03-26T04:37:04.631Z,6.94
2023-03-26T04:39:38.459Z,7.00
2023-03-26T04:42:34.442Z,6.98
2023-03-26T04:45:14.506Z,6.98
2023-03-26T04:47:45.898Z,7.01
2023-03-26T04:50:16.444Z,7.01
2023-03-26T04:52:47.633Z,7.04
2023-03-26T04:55:45.334Z,7.05
2023-03-26T04:58:20.961Z,7.05
2023-03-26T05:01:00.619Z,7.10
2023-03-26T05:03:48.347Z,7.11
2023-03-26T05:06:18.465Z,7.14
2023-03-26T05:08:49.312Z,7.19
2023-03-26T05:11:38.533Z,7.25
2023-03-26T05:14:08.885Z,7.28
2023-03-26T05:16:41.616Z,7.35
2023-03-26T05:19:14.086Z,7.39
2023-03-26T05:21:49.676Z,7.39
2023-03-26T05:24:19.452Z,7.42
2023-03-26T05:26:50.361Z,7.45
2023-03-26T05:29:24.442Z,7.45
2023-03-26T05:31:56.048Z,7.45
2023-03-26T05:34:26.673Z,7.49
2023-03-26T05:36:56.422Z,7.47
2023-03-26T05:39:47.671Z,7.51
2023-03-26T05:42:46.968Z,7.53
2023-03-26T05:45:39.178Z,7.61
2023-03-26T05:48:28.244Z,7.73
2023-03-26T05:50:58.326Z,7.81
2023-03-26T05:53:29.152Z,7.87
2023-03-26T05:56:20.677Z,7.94
2023-03-26T05:59:09.970Z,8.00
2023-03-26T06:01:57.949Z,8.05
2023-03-26T06:04:53.736Z,8.18
2023-03-26T06:07:33.660Z,8.21
2023-03-26T06:10:18.333Z,8.25
2023-03-26T06:12:52.304Z,8.29
2023-03-26T06:15:23.323Z,8.26
2023-03-26T06:18:03.750Z,8.25
2023-03-26T06:20:51.668Z,8.15
2023-03-26T06:23:28.855Z,8.02
2023-03-26T06:26:13.851Z,7.93
2023-03-26T06:29:04.205Z,7.85
2023-03-26T06:31:55.247Z,7.81
2023-03-26T06:34:32.895Z,7.76
2023-03-26T06:37:02.905Z,7.71
2023-03-26T06:39:32.636Z,7.68
2023-03-26T06:42:18.872Z,7.68
2023-03-26T06:45:23.927Z,7.66
2023-03-26T06:48:23.216Z,7.68
2023-03-26T06:51:11.849Z,7.68
2023-03-26T06:53:59.894Z,7.76
2023-03-26T06:57:02.936Z,7.84
2023-03-26T06:59:55.941Z,8.37
2023-03-26T07:02:44.405Z,8.90
2023-03-26T07:05:31.971Z,9.18
2023-03-26T07:08:25.113Z,9.44
2023-03-26T07:11:34.872Z,9.60
2023-03-26T07:14:27.309Z,9.71
2023-03-26T07:17:13.371Z,9.81
2023-03-26T07:19:57.717Z,10.03
2023-03-26T07:22:29.942Z,10.20
2023-03-26T07:25:27.940Z,10.39
2023-03-26T07:28:31.957Z,10.45
2023-03-26T07:31:24.722Z,10.45
2023-03-26T07:34:40.648Z,10.36
2023-03-26T07:37:47.212Z,10.26
2023-03-26T07:41:03.188Z,10.17
2023-03-26T07:44:19.120Z,10.02
2023-03-26T07:47:18.375Z,9.94
2023-03-26T07:50:15.670Z,9.85
2023-03-26T07:53:03.361Z,9.80
2023-03-26T07:55:59.953Z,9.82
2023-03-26T07:59:04.534Z,9.80
2023-03-26T08:02:05.050Z,9.77
2023-03-26T08:05:17.891Z,9.78
2023-03-26T08:08:26.650Z,9.84
2023-03-26T08:11:34.542Z,9.92
2023-03-26T08:14:27.383Z,9.98
2023-03-26T08:17:06.067Z,9.96
2023-03-26T08:19:57.438Z,9.96
2023-03-26T08:22:31.562Z,10.03
2023-03-26T08:25:05.504Z,10.06
2023-03-26T08:27:39.630Z,10.08
2023-03-26T08:30:14.290Z,10.09
2023-03-26T08:32:54.522Z,10.17
2023-03-26T08:35:26.362Z,10.26
2023-03-26T08:37:55.743Z,10.33
2023-03-26T08:40:58.067Z,10.43
2023-03-26T08:43:55.436Z,10.50
2023-03-26T08:47:11.532Z,10.57
2023-03-26T08:49:59.455Z,10.74
2023-03-26T08:52:58.801Z,10.84
2023-03-26T08:55:40.523Z,10.85
2023-03-26T08:58:36.537Z,10.79
2023-03-26T09:01:33.589Z,10.68
2023-03-26T09:04:44.089Z,10.60
2023-03-26T09:07:41.495Z,10.48
2023-03-26T09:10:40.663Z,10.47
2023-03-26T09:13:41.678Z,10.47
2023-03-26T09:16:44.357Z,10.51
2023-03-26T09:19:45.176Z,10.79
2023-03-26T09:22:45.620Z,11.26
2023-03-26T09:25:34.686Z,11.60
2023-03-26T09:28:33.875Z,11.67
2023-03-26T09:31:36.650Z,11.67
2023-03-26T09:34:28.070Z,11.82
2023-03-26T09:37:23.559Z,11.84
2023-03-26T09:40:06.856Z,11.81
2023-03-26T09:42:44.810Z,11.69
2023-03-26T09:45:43.702Z,11.55
2023-03-26T09:48:42.798Z,11.54
2023-03-26T09:51:27.714Z,11.53
2023-03-26T09:54:23.210Z,11.57
2023-03-26T09:57:03.280Z,11.65
2023-03-26T10:00:01.110Z,11.71
2023-03-26T10:02:52.689Z,11.65
2023-03-26T10:05:34.083Z,11.79
2023-03-26T10:08:30.847Z,11.95
2023-03-26T10:11:11.911Z,12.05
2023-03-26T10:13:56.513Z,12.06
2023-03-26T10:16:40.071Z,12.15
2023-03-26T10:19:52.401Z,12.29
2023-03-26T10:22:39.383Z,12.51
2023-03-26T10:25:35.971Z,12.80
2023-03-26T10:28:26.200Z,12.82
2023-03-26T10:31:06.026Z,12.64
2023-03-26T10:33:42.742Z,12.45
2023-03-26T10:36:29.151Z,12.52
2023-03-26T10:39:37.046Z,12.64
2023-03-26T10:42:22.215Z,12.27
2023-03-26T10:45:14.941Z,11.78
2023-03-26T10:48:23.584Z,11.24
2023-03-26T10:51:05.021Z,10.88
2023-03-26T10:53:42.834Z,10.85
2023-03-26T10:56:24.703Z,11.16
2023-03-26T10:59:05.883Z,11.54
2023-03-26T11:01:47.719Z,11.81
2023-03-26T11:04:32.730Z,12.16
2023-03-26T11:07:11.578Z,12.37
2023-03-26T11:09:49.079Z,12.52
2023-03-26T11:12:28.459Z,12.65
2023-03-26T11:15:13.804Z,12.65
2023-03-26T11:17:52.847Z,12.58
2023-03-26T11:20:27.713Z,12.58
2023-03-26T11:23:25.788Z,12.58
2023-03-26T11:25:59.513Z,12.61
2023-03-26T11:29:03.259Z,12.69
2023-03-26T11:31:49.112Z,12.74
2023-03-26T11:34:27.489Z,12.79
2023-03-26T11:36:58.915Z,12.88
2023-03-26T11:39:37.570Z,12.99
2023-03-26T11:42:11.669Z,13.07
2023-03-26T11:44:53.437Z,13.30
2023-03-26T11:47:31.031Z,13.47
2023-03-26T11:50:02.213Z,13.45
2023-03-26T11:52:31.472Z,13.38
2023-03-26T11:55:00.535Z,13.41
2023-03-26T11:57:35.334Z,13.52
2023-03-26T12:00:15.432Z,13.64
2023-03-26T12:02:46.681Z,13.68
2023-03-26T12:05:20.049Z,13.78
2023-03-26T12:07:54.252Z,13.89
2023-03-26T12:10:32.755Z,13.89
2023-03-26T12:13:22.903Z,13.72
2023-03-26T12:15:57.874Z,13.51
2023-03-26T12:18:28.497Z,13.30
2023-03-26T12:21:08.553Z,13.16
2023-03-26T12:23:56.506Z,13.12
2023-03-26T12:26:39.156Z,13.07
2023-03-26T12:29:12.542Z,13.02
2023-03-26T12:31:55.081Z,12.91
2023-03-26T12:34:34.245Z,12.76
2023-03-26T12:37:08.228Z,12.72
2023-03-26T12:40:07.450Z,12.59
2023-03-26T12:44:46.128Z,12.40
2023-03-26T12:45:23.717Z,12.26
2023-03-26T12:48:02.983Z,12.20
2023-03-26T12:50:51.062Z,12.19
2023-03-26T12:53:53.212Z,12.13
2023-03-26T12:56:35.623Z,12.12
2023-03-26T12:59:22.001Z,11.96
2023-03-26T13:02:15.500Z,11.85
2023-03-26T13:05:08.310Z,11.61
2023-03-26T13:07:53.407Z,11.46
2023-03-26T13:10:45.501Z,11.43
2023-03-26T13:13:45.271Z,11.54
2023-03-26T13:16:27.264Z,11.75
2023-03-26T13:19:02.312Z,11.92
2023-03-26T13:21:44.735Z,11.97
2023-03-26T13:24:25.362Z,12.06
2023-03-26T13:27:10.691Z,12.09
2023-03-26T13:29:55.797Z,12.06
2023-03-26T13:32:37.291Z,12.00
2023-03-26T13:35:23.755Z,11.89
2023-03-26T13:38:03.467Z,11.92
2023-03-26T13:40:45.435Z,11.96
2023-03-26T13:43:32.253Z,11.95
2023-03-26T13:46:13.274Z,11.89
2023-03-26T13:48:49.289Z,11.79
2023-03-26T13:51:30.872Z,11.54
2023-03-26T13:54:06.282Z,11.36
2023-03-26T13:56:43.451Z,11.24
2023-03-26T13:59:21.532Z,11.14
2023-03-26T14:01:58.234Z,11.13
2023-03-26T14:04:32.681Z,11.22
2023-03-26T14:07:10.348Z,11.30
2023-03-26T14:09:48.118Z,11.39
2023-03-26T14:12:28.973Z,11.46
2023-03-26T14:15:03.886Z,11.49
2023-03-26T14:17:40.116Z,11.50
2023-03-26T14:20:40.441Z,11.49
2023-03-26T14:23:44.719Z,11.49
2023-03-26T14:26:25.144Z,11.54
2023-03-26T14:29:33.933Z,11.60
2023-03-26T14:32:24.186Z,11.65
2023-03-26T14:35:08.858Z,11.62
2023-03-26T14:37:56.931Z,11.60
2023-03-26T14:40:58.572Z,11.58
2023-03-26T14:43:59.595Z,11.60
2023-03-26T14:46:53.740Z,11.58
2023-03-26T14:49:53.135Z,11.57
2023-03-26T14:52:31.508Z,11.53
2023-03-26T14:55:13.301Z,11.53
2023-03-26T14:58:14.075Z,11.46
2023-03-26T15:01:08.344Z,11.33
2023-03-26T15:04:25.685Z,11.26
2023-03-26T15:07:46.566Z,11.22
2023-03-26T15:11:07.613Z,11.19
2023-03-26T15:13:56.125Z,11.17
2023-03-26T15:16:59.737Z,11.10
2023-03-26T15:20:11.376Z,11.07
2023-03-26T15:23:15.335Z,11.00
2023-03-26T15:26:36.606Z,10.96
2023-03-26T15:29:41.091Z,10.95
2023-03-26T15:32:58.817Z,10.94
2023-03-26T15:35:56.976Z,10.88
2023-03-26T15:38:53.283Z,10.85
2023-03-26T15:41:33.928Z,10.81
2023-03-26T15:44:31.646Z,10.75
2023-03-26T15:47:26.680Z,10.74
2023-03-26T15:50:08.917Z,10.71
2023-03-26T15:52:53.882Z,10.67
2023-03-26T15:55:30.932Z,10.65
2023-03-26T15:58:15.122Z,10.65
2023-03-26T16:00:56.045Z,10.64
2023-03-26T16:03:40.141Z,10.63
2023-03-26T16:06:47.758Z,10.58
2023-03-26T16:09:33.810Z,10.52
2023-03-26T16:12:33.407Z,10.50
2023-03-26T16:15:23.848Z,10.43
2023-03-26T16:18:29.471Z,10.37
2023-03-26T16:21:40.741Z,10.27
2023-03-26T16:24:28.893Z,10.17
2023-03-26T16:27:22.865Z,10.10
2023-03-26T16:30:28.622Z,10.03
2023-03-26T16:33:11.719Z,9.96
2023-03-26T16:36:06.792Z,9.88
2023-03-26T16:38:52.983Z,9.81
2023-03-26T16:41:26.083Z,9.71
2023-03-26T16:44:11.535Z,9.62
2023-03-26T16:46:52.777Z,9.55
2023-03-26T16:49:35.430Z,9.47
2023-03-26T16:52:16.012Z,9.39
2023-03-26T16:54:50.173Z,9.30
2023-03-26T16:57:25.580Z,9.19
2023-03-26T17:00:24.562Z,9.12
2023-03-26T17:03:07.566Z,9.02
2023-03-26T17:05:43.903Z,8.94
2023-03-26T17:08:22.643Z,8.84
2023-03-26T17:11:19.131Z,8.75
2023-03-26T17:14:03.119Z,8.67
2023-03-26T17:16:40.775Z,8.57
2023-03-26T17:19:29.132Z,8.49
2023-03-26T17:22:06.874Z,8.39
2023-03-26T17:24:45.487Z,8.30
2023-03-26T17:27:49.542Z,8.21
2023-03-26T17:30:44.605Z,8.13
2023-03-26T17:33:27.892Z,8.04
2023-03-26T17:36:29.314Z,7.94
2023-03-26T17:39:23.180Z,7.84
2023-03-26T17:42:13.224Z,7.74
2023-03-26T17:44:46.195Z,7.63
2023-03-26T17:47:33.327Z,7.56
2023-03-26T17:50:17.965Z,7.42
2023-03-26T17:52:54.616Z,7.35
2023-03-26T17:55:30.090Z,7.26
2023-03-26T17:58:01.201Z,7.19
2023-03-26T18:00:35.808Z,7.10
2023-03-26T18:03:18.609Z,7.02
2023-03-26T18:05:48.658Z,6.97
2023-03-26T18:08:40.798Z,6.88
2023-03-26T18:11:38.536Z,6.79
2023-03-26T18:14:34.389Z,6.72
2023-03-26T18:17:06.031Z,6.61
2023-03-26T18:19:49.561Z,6.55
2023-03-26T18:22:23.489Z,6.48
2023-03-26T18:24:59.179Z,6.40
2023-03-26T18:27:38.024Z,6.35
2023-03-26T18:30:20.517Z,6.26
2023-03-26T18:32:58.824Z,6.19
2023-03-26T18:35:40.684Z,6.12
2023-03-26T18:38:18.776Z,6.10
2023-03-26T18:41:06.081Z,6.04
2023-03-26T18:43:44.083Z,5.98
2023-03-26T18:46:16.369Z,5.97
2023-03-26T18:48:47.144Z,5.94
2023-03-26T18:51:22.275Z,5.93
2023-03-26T18:53:57.744Z,5.89
2023-03-26T18:56:33.287Z,5.86
2023-03-26T18:59:05.863Z,5.82
2023-03-26T19:01:37.997Z,5.77
2023-03-26T19:04:14.663Z,5.74
2023-03-26T19:06:45.946Z,5.72
2023-03-26T19:09:30.946Z,5.63
2023-03-26T19:12:09.144Z,5.59
2023-03-26T19:14:55.598Z,5.55
2023-03-26T19:17:28.687Z,5.46
2023-03-26T19:19:58.363Z,5.43
2023-03-26T19:22:29.013Z,5.37
2023-03-26T19:25:01.425Z,5.34
2023-03-26T19:27:30.650Z,5.27
2023-03-26T19:29:59.892Z,5.22
2023-03-26T19:32:34.004Z,5.20
2023-03-26T19:35:04.220Z,5.11
2023-03-26T19:37:49.349Z,5.06
2023-03-26T19:40:24.668Z,5.01
2023-03-26T19:42:54.594Z,4.97
2023-03-26T19:45:26.656Z,4.91
2023-03-26T19:48:11.769Z,4.89
2023-03-26T19:50:54.656Z,4.86
2023-03-26T19:53:32.034Z,4.83
2023-03-26T19:56:12.884Z,4.80
2023-03-26T19:58:44.023Z,4.77
2023-03-26T20:01:17.773Z,4.75
2023-03-26T20:03:51.403Z,4.71
2023-03-26T20:06:37.855Z,4.63
2023-03-26T20:09:15.740Z,4.62
2023-03-26T20:11:46.474Z,4.55
2023-03-26T20:14:21.751Z,4.52
2023-03-26T20:16:51.827Z,4.47
2023-03-26T20:19:23.333Z,4.42
2023-03-26T20:21:54.084Z,4.39
2023-03-26T20:24:28.702Z,4.37
2023-03-26T20:26:58.979Z,4.31
2023-03-26T20:29:28.952Z,4.28
2023-03-26T20:31:58.940Z,4.27
2023-03-26T20:34:31.522Z,4.24
2023-03-26T20:37:02.182Z,4.20
2023-03-26T20:39:31.829Z,4.18
2023-03-26T20:42:02.468Z,4.16
2023-03-26T20:44:32.313Z,4.10
2023-03-26T20:47:04.369Z,4.06
2023-03-26T20:49:33.360Z,4.03
2023-03-26T20:52:03.040Z,4.03
2023-03-26T20:54:32.687Z,3.99
2023-03-26T20:57:02.811Z,3.97
2023-03-26T20:59:34.112Z,3.93
2023-03-26T21:02:04.348Z,3.90
2023-03-26T21:04:34.472Z,3.90
2023-03-26T21:07:17.490Z,3.89
2023-03-26T21:09:49.595Z,3.94
2023-03-26T21:12:27.741Z,3.99
2023-03-26T21:14:59.609Z,4.07
2023-03-26T21:17:32.192Z,4.13
2023-03-26T21:20:11.533Z,4.20
2023-03-26T21:22:49.646Z,4.24
2023-03-26T21:25:27.808Z,4.32
2023-03-26T21:28:39.415Z,4.37
2023-03-26T21:31:14.477Z,4.38
2023-03-26T21:33:44.638Z,4.35
2023-03-26T21:36:16.559Z,4.32
2023-03-26T21:38:47.227Z,4.28
2023-03-26T21:41:26.947Z,4.25
2023-03-26T21:43:59.934Z,4.20
2023-03-26T21:46:40.847Z,4.16
2023-03-26T21:49:10.855Z,4.13
2023-03-26T21:51:41.125Z,4.13
2023-03-26T21:54:24.661Z,4.07
2023-03-26T21:57:05.365Z,4.01
2023-03-26T21:59:39.895Z,3.93
2023-03-26T22:02:18.158Z,3.89
2023-03-26T22:04:51.833Z,3.79
2023-03-26T22:07:27.322Z,3.75
2023-03-26T22:09:59.855Z,3.68
2023-03-26T22:12:29.071Z,3.63
2023-03-26T22:15:00.925Z,3.59
2023-03-26T22:17:30.184Z,3.58
2023-03-26T22:20:00.712Z,3.52
2023-03-26T22:22:29.999Z,3.48
2023-03-26T22:24:59.252Z,3.45
2023-03-26T22:27:29.468Z,3.40
2023-03-26T22:30:01.367Z,3.37
2023-03-26T22:32:32.889Z,3.32
2023-03-26T22:35:03.692Z,3.27
2023-03-26T22:37:34.011Z,3.21
2023-03-26T22:40:07.756Z,3.21
2023-03-26T22:42:36.809Z,3.14
2023-03-26T22:45:08.683Z,3.13
2023-03-26T22:47:38.517Z,3.11
2023-03-26T22:50:09.697Z,3.07
2023-03-26T22:52:40.184Z,3.04
2023-03-26T22:55:11.222Z,3.02
2023-03-26T22:57:40.781Z,2.96
2023-03-26T23:00:17.103Z,2.96
2023-03-26T23:09:08.513Z,2.86
2023-03-26T23:11:37.394Z,2.83
2023-03-26T23:14:06.543Z,2.83
2023-03-26T23:16:38.345Z,2.82
2023-03-26T23:19:08.509Z,2.79
2023-03-26T23:21:37.465Z,2.75
2023-03-26T23:24:08.662Z,2.75
2023-03-26T23:26:49.514Z,2.72
2023-03-26T23:29:20.098Z,2.69
2023-03-26T23:31:48.978Z,2.69
2023-03-26T23:34:18.212Z,2.68
2023-03-26T23:36:47.106Z,2.69
2023-03-26T23:39:16.476Z,2.69
2023-03-26T23:41:45.626Z,2.67
2023-03-26T23:44:16.597Z,2.68
2023-03-26T23:46:45.501Z,2.67
2023-03-26T23:49:15.401Z,2.68
2023-03-26T23:51:44.361Z,2.67
2023-03-26T23:54:14.784Z,2.71
2023-03-26T23:56:43.660Z,2.69
2023-03-26T23:59:13.626Z,2.72
